createdAt,value
2022-08-28T00:01:09.722Z,21.41
2022-08-28T00:03:36.925Z,21.37
2022-08-28T00:06:06.233Z,21.41
2022-08-28T00:08:33.992Z,21.31
2022-08-28T00:11:01.434Z,21.31
2022-08-28T00:13:28.526Z,21.27
2022-08-28T00:16:00.994Z,21.26
2022-08-28T00:18:31.410Z,21.21
2022-08-28T00:20:59.308Z,21.21
2022-08-28T00:23:28.414Z,21.09
2022-08-28T00:26:10.506Z,21.15
2022-08-28T00:28:38.178Z,21.10
2022-08-28T00:31:05.552Z,21.10
2022-08-28T00:33:34.889Z,21.15
2022-08-28T00:36:03.842Z,21.10
2022-08-28T00:38:32.612Z,21.12
2022-08-28T00:41:03.987Z,21.09
2022-08-28T00:43:45.472Z,21.07
2022-08-28T00:46:16.287Z,21.00
2022-08-28T00:48:43.685Z,21.07
2022-08-28T00:51:31.323Z,20.84
2022-08-28T00:54:00.126Z,21.09
2022-08-28T00:56:30.516Z,21.04
2022-08-28T00:59:03.819Z,20.96
2022-08-28T01:01:31.426Z,20.97
2022-08-28T01:03:58.792Z,21.08
2022-08-28T01:06:26.175Z,21.06
2022-08-28T01:08:54.591Z,21.07
2022-08-28T01:11:22.401Z,21.07
2022-08-28T01:13:54.573Z,21.06
2022-08-28T01:16:23.180Z,21.02
2022-08-28T01:19:00.710Z,20.89
2022-08-28T01:21:47.340Z,21.00
2022-08-28T01:24:19.683Z,20.99
2022-08-28T01:26:47.517Z,20.88
2022-08-28T01:29:16.048Z,20.80
2022-08-28T01:31:44.197Z,20.75
2022-08-28T01:34:13.207Z,20.74
2022-08-28T01:36:41.423Z,20.68
2022-08-28T01:39:13.215Z,20.79
2022-08-28T01:41:46.981Z,20.74
2022-08-28T01:44:18.386Z,20.73
2022-08-28T01:46:46.811Z,20.69
2022-08-28T01:49:14.357Z,20.59
2022-08-28T01:51:42.327Z,20.62
2022-08-28T01:54:10.937Z,20.64
2022-08-28T01:56:42.206Z,20.66
2022-08-28T01:59:11.356Z,20.66
2022-08-28T02:01:40.301Z,20.68
2022-08-28T02:04:11.692Z,20.67
2022-08-28T02:06:39.226Z,20.68
2022-08-28T02:09:13.513Z,20.67
2022-08-28T02:11:46.724Z,20.66
2022-08-28T02:14:15.839Z,20.61
2022-08-28T02:16:43.095Z,20.57
2022-08-28T02:19:12.285Z,20.52
2022-08-28T02:21:40.268Z,20.48
2022-08-28T02:24:08.822Z,20.44
2022-08-28T02:26:38.578Z,20.41
2022-08-28T02:29:08.384Z,20.41
2022-08-28T02:31:35.847Z,20.39
2022-08-28T02:34:06.097Z,20.37
2022-08-28T02:36:36.943Z,20.35
2022-08-28T02:39:04.358Z,20.30
2022-08-28T02:41:32.529Z,20.38
2022-08-28T02:44:00.235Z,20.38
2022-08-28T02:46:27.378Z,20.44
2022-08-28T02:48:56.146Z,20.42
2022-08-28T02:51:23.593Z,20.35
2022-08-28T02:53:52.189Z,20.32
2022-08-28T02:56:19.944Z,20.31
2022-08-28T02:58:47.052Z,20.25
2022-08-28T03:01:14.339Z,20.25
2022-08-28T03:03:42.399Z,20.19
2022-08-28T03:06:15.080Z,20.09
2022-08-28T03:08:43.283Z,20.17
2022-08-28T03:11:11.094Z,20.16
2022-08-28T03:13:38.806Z,20.02
2022-08-28T03:16:07.214Z,20.12
2022-08-28T03:18:34.421Z,20.02
2022-08-28T03:21:02.202Z,20.04
2022-08-28T03:23:30.322Z,20.11
2022-08-28T03:25:58.947Z,20.11
2022-08-28T03:28:30.628Z,20.10
2022-08-28T03:30:58.378Z,20.14
2022-08-28T03:33:27.720Z,19.99
2022-08-28T03:35:55.705Z,20.17
2022-08-28T03:38:25.228Z,20.21
2022-08-28T03:40:53.606Z,20.23
2022-08-28T03:43:23.820Z,20.32
2022-08-28T03:46:01.131Z,20.35
2022-08-28T03:48:32.356Z,20.39
2022-08-28T03:51:00.717Z,20.34
2022-08-28T03:53:30.032Z,20.32
2022-08-28T03:55:58.201Z,20.32
2022-08-28T03:58:26.649Z,20.41
2022-08-28T04:00:53.692Z,20.43
2022-08-28T04:03:20.900Z,20.55
2022-08-28T04:05:48.449Z,20.68
2022-08-28T04:08:18.024Z,20.79
2022-08-28T04:10:46.646Z,20.81
2022-08-28T04:13:15.078Z,20.86
2022-08-28T04:15:42.249Z,20.88
2022-08-28T04:18:11.009Z,20.85
2022-08-28T04:20:38.905Z,20.97
2022-08-28T04:23:08.552Z,20.85
2022-08-28T04:25:35.848Z,20.84
2022-08-28T04:28:03.815Z,20.82
2022-08-28T04:30:30.915Z,20.86
2022-08-28T04:32:59.625Z,20.90
2022-08-28T04:35:27.192Z,20.88
2022-08-28T04:37:57.521Z,20.94
2022-08-28T04:40:26.287Z,20.86
2022-08-28T04:42:53.465Z,21.02
2022-08-28T04:45:20.551Z,21.10
2022-08-28T04:47:47.769Z,21.10
2022-08-28T04:50:15.014Z,21.14
2022-08-28T04:52:43.621Z,21.20
2022-08-28T04:55:11.107Z,21.14
2022-08-28T04:57:38.349Z,21.13
2022-08-28T05:00:07.818Z,21.25
2022-08-28T05:02:34.918Z,21.20
2022-08-28T05:05:03.433Z,21.21
2022-08-28T05:07:31.272Z,21.27
2022-08-28T05:09:58.405Z,21.32
2022-08-28T05:12:25.654Z,21.36
2022-08-28T05:14:52.822Z,21.26
2022-08-28T05:17:19.904Z,21.47
2022-08-28T05:19:48.451Z,21.49
2022-08-28T05:22:15.899Z,21.58
2022-08-28T05:24:42.945Z,21.72
2022-08-28T05:27:10.095Z,21.99
2022-08-28T05:29:37.239Z,22.36
2022-08-28T05:32:04.924Z,22.58
2022-08-28T05:34:32.042Z,22.81
2022-08-28T05:36:59.315Z,23.20
2022-08-28T05:39:26.459Z,23.37
2022-08-28T05:41:53.596Z,23.54
2022-08-28T05:44:21.156Z,23.87
2022-08-28T05:46:49.558Z,24.08
2022-08-28T05:49:19.705Z,24.16
2022-08-28T05:51:47.710Z,24.22
2022-08-28T05:54:15.772Z,24.76
2022-08-28T05:56:45.023Z,25.72
2022-08-28T05:59:13.199Z,27.84
2022-08-28T06:01:43.731Z,30.13
2022-08-28T06:04:14.860Z,31.99
2022-08-28T06:06:42.431Z,33.83
2022-08-28T06:09:15.681Z,35.26
2022-08-28T06:11:46.178Z,36.50
2022-08-28T06:14:17.499Z,37.00
2022-08-28T06:16:49.723Z,37.96
2022-08-28T06:19:17.498Z,39.08
2022-08-28T06:21:45.047Z,39.03
2022-08-28T06:24:13.643Z,39.50
2022-08-28T06:26:41.769Z,40.09
2022-08-28T06:29:12.401Z,38.76
2022-08-28T06:31:40.569Z,38.46
2022-08-28T06:34:09.125Z,39.48
2022-08-28T06:36:39.266Z,40.73
2022-08-28T06:39:07.137Z,41.59
2022-08-28T06:41:41.056Z,41.62
2022-08-28T06:44:09.146Z,40.99
2022-08-28T06:46:36.735Z,39.61
2022-08-28T06:49:07.215Z,37.92
2022-08-28T06:51:35.418Z,36.44
2022-08-28T06:54:02.742Z,34.75
2022-08-28T06:56:29.948Z,33.90
2022-08-28T06:58:58.787Z,33.21
2022-08-28T07:01:32.669Z,32.36
2022-08-28T07:04:02.819Z,31.74
2022-08-28T07:06:36.463Z,31.39
2022-08-28T07:09:06.542Z,30.94
2022-08-28T07:11:35.686Z,30.55
2022-08-28T07:14:03.553Z,30.07
2022-08-28T07:16:33.932Z,29.81
2022-08-28T07:19:04.694Z,29.60
2022-08-28T07:21:38.299Z,29.52
2022-08-28T07:24:07.410Z,29.38
2022-08-28T07:26:35.635Z,29.12
2022-08-28T07:29:10.306Z,29.04
2022-08-28T07:31:44.875Z,28.95
2022-08-28T07:34:14.833Z,28.74
2022-08-28T07:36:43.227Z,28.63
2022-08-28T07:39:12.757Z,28.66
2022-08-28T07:41:43.114Z,28.75
2022-08-28T07:44:31.351Z,28.95
2022-08-28T07:47:04.380Z,29.13
2022-08-28T07:49:33.810Z,29.30
2022-08-28T07:52:01.649Z,29.36
2022-08-28T07:54:28.806Z,29.35
2022-08-28T07:56:56.492Z,29.34
2022-08-28T07:59:24.092Z,29.30
2022-08-28T08:01:51.955Z,29.21
2022-08-28T08:04:21.195Z,29.02
2022-08-28T08:06:48.778Z,28.89
2022-08-28T08:09:18.194Z,29.00
2022-08-28T08:11:46.629Z,28.95
2022-08-28T08:14:14.521Z,29.16
2022-08-28T08:16:44.998Z,29.27
2022-08-28T08:19:16.672Z,29.36
2022-08-28T08:21:46.481Z,29.47
2022-08-28T08:24:21.101Z,29.51
2022-08-28T08:26:56.471Z,29.51
2022-08-28T08:29:29.466Z,29.49
2022-08-28T08:32:09.427Z,29.50
2022-08-28T08:34:39.975Z,29.54
2022-08-28T08:37:08.056Z,29.64
2022-08-28T08:39:36.681Z,29.40
2022-08-28T08:42:09.153Z,29.13
2022-08-28T08:44:43.707Z,29.02
2022-08-28T08:47:14.865Z,29.14
2022-08-28T08:49:57.318Z,28.92
2022-08-28T08:52:27.499Z,28.70
2022-08-28T08:55:16.032Z,28.46
2022-08-28T08:57:46.184Z,28.49
2022-08-28T09:00:17.221Z,28.73
2022-08-28T09:02:53.357Z,28.86
2022-08-28T09:05:25.518Z,28.85
2022-08-28T09:08:01.633Z,28.69
2022-08-28T09:11:00.991Z,28.52
2022-08-28T09:13:59.404Z,28.65
2022-08-28T09:16:38.887Z,28.67
2022-08-28T09:19:10.024Z,28.67
2022-08-28T09:21:41.851Z,28.77
2022-08-28T09:24:24.124Z,28.83
2022-08-28T09:26:57.196Z,28.79
2022-08-28T09:29:28.131Z,28.86
2022-08-28T09:31:56.003Z,28.96
2022-08-28T09:34:27.688Z,29.06
2022-08-28T09:36:57.306Z,29.21
2022-08-28T09:39:35.994Z,29.21
2022-08-28T09:42:44.808Z,29.05
2022-08-28T09:45:18.544Z,29.26
2022-08-28T09:47:48.994Z,29.37
2022-08-28T09:50:36.480Z,29.53
2022-08-28T09:53:10.130Z,29.42
2022-08-28T09:56:18.935Z,29.61
2022-08-28T09:58:49.853Z,29.77
2022-08-28T10:01:43.439Z,29.99
2022-08-28T10:04:19.692Z,30.16
2022-08-28T10:07:33.169Z,30.09
2022-08-28T10:10:18.090Z,29.95
2022-08-28T10:13:09.746Z,30.02
2022-08-28T10:15:43.646Z,30.11
2022-08-28T10:18:26.060Z,30.12
2022-08-28T10:21:03.528Z,30.16
2022-08-28T10:23:51.914Z,29.81
2022-08-28T10:27:04.939Z,29.50
2022-08-28T10:29:48.435Z,29.53
2022-08-28T10:32:33.846Z,29.69
2022-08-28T10:35:09.036Z,29.79
2022-08-28T10:37:39.119Z,29.93
2022-08-28T10:40:11.624Z,30.02
2022-08-28T10:42:42.315Z,30.32
2022-08-28T10:45:15.284Z,30.58
2022-08-28T10:47:45.112Z,30.71
2022-08-28T10:50:22.949Z,31.08
2022-08-28T10:52:56.036Z,31.43
2022-08-28T10:55:25.255Z,31.83
2022-08-28T10:58:00.512Z,31.97
2022-08-28T11:00:28.754Z,31.93
2022-08-28T11:03:01.393Z,31.73
2022-08-28T11:05:33.938Z,31.40
2022-08-28T11:08:05.309Z,31.09
2022-08-28T11:10:32.200Z,30.81
2022-08-28T11:12:59.978Z,30.67
2022-08-28T11:15:31.498Z,30.61
2022-08-28T11:18:19.081Z,30.60
2022-08-28T11:21:04.936Z,30.58
2022-08-28T11:23:52.193Z,30.58
2022-08-28T11:26:30.446Z,30.52
2022-08-28T11:29:00.257Z,30.41
2022-08-28T11:31:29.598Z,30.42
2022-08-28T11:33:59.197Z,30.41
2022-08-28T11:36:28.315Z,30.49
2022-08-28T11:38:55.609Z,30.54
2022-08-28T11:41:36.963Z,30.53
2022-08-28T11:44:09.802Z,30.53
2022-08-28T11:46:36.723Z,30.46
2022-08-28T11:49:12.589Z,30.55
2022-08-28T11:52:08.870Z,30.72
2022-08-28T11:54:55.253Z,30.91
2022-08-28T11:57:40.828Z,31.00
2022-08-28T12:00:10.879Z,31.20
2022-08-28T12:02:41.183Z,31.30
2022-08-28T12:05:12.989Z,31.07
2022-08-28T12:07:41.862Z,31.18
2022-08-28T12:10:21.171Z,31.19
2022-08-28T12:12:50.198Z,31.15
2022-08-28T12:15:40.635Z,31.08
2022-08-28T12:18:10.646Z,30.99
2022-08-28T12:20:56.053Z,30.96
2022-08-28T12:23:30.107Z,30.94
2022-08-28T12:26:05.390Z,31.07
2022-08-28T12:28:34.144Z,31.18
2022-08-28T12:31:07.248Z,31.30
2022-08-28T12:33:37.530Z,31.12
2022-08-28T12:36:05.650Z,31.08
2022-08-28T12:38:33.938Z,30.91
2022-08-28T12:41:02.118Z,30.84
2022-08-28T12:43:29.016Z,30.92
2022-08-28T12:46:01.817Z,31.05
2022-08-28T12:48:33.494Z,31.13
2022-08-28T12:51:08.175Z,31.11
2022-08-28T12:53:43.686Z,31.10
2022-08-28T12:56:11.645Z,31.05
2022-08-28T12:58:40.795Z,30.98
2022-08-28T13:01:23.710Z,30.92
2022-08-28T13:03:53.099Z,30.70
2022-08-28T13:06:29.232Z,30.54
2022-08-28T13:08:59.844Z,30.43
2022-08-28T13:11:28.580Z,30.29
2022-08-28T13:13:55.851Z,30.20
2022-08-28T13:16:37.638Z,30.00
2022-08-28T13:19:04.687Z,29.96
2022-08-28T13:21:35.367Z,29.88
2022-08-28T13:24:21.329Z,29.78
2022-08-28T13:26:49.616Z,29.66
2022-08-28T13:29:21.695Z,29.68
2022-08-28T13:32:06.031Z,29.73
2022-08-28T13:34:37.177Z,29.74
2022-08-28T13:37:20.296Z,29.71
2022-08-28T13:39:47.706Z,29.69
2022-08-28T13:42:16.411Z,29.66
2022-08-28T13:44:48.783Z,29.61
2022-08-28T13:47:15.944Z,29.61
2022-08-28T13:49:43.009Z,29.65
2022-08-28T13:52:10.025Z,29.64
2022-08-28T13:54:38.207Z,29.63
2022-08-28T13:57:10.002Z,29.56
2022-08-28T13:59:36.916Z,29.52
2022-08-28T14:02:26.750Z,29.50
2022-08-28T14:04:53.892Z,29.53
2022-08-28T14:07:20.897Z,29.54
2022-08-28T14:09:49.405Z,29.53
2022-08-28T14:12:18.862Z,29.48
2022-08-28T14:14:45.871Z,29.43
2022-08-28T14:17:13.089Z,29.29
2022-08-28T14:19:40.075Z,29.21
2022-08-28T14:22:07.264Z,29.17
2022-08-28T14:24:34.262Z,29.16
2022-08-28T14:27:02.847Z,29.12
2022-08-28T14:29:31.556Z,29.10
2022-08-28T14:32:00.225Z,29.08
2022-08-28T14:34:28.133Z,29.08
2022-08-28T14:36:57.885Z,29.06
2022-08-28T14:39:26.860Z,29.03
2022-08-28T14:41:54.983Z,28.98
2022-08-28T14:44:22.676Z,28.88
2022-08-28T14:46:52.725Z,28.81
2022-08-28T14:49:23.995Z,28.75
2022-08-28T14:51:51.591Z,28.64
2022-08-28T14:54:19.875Z,28.57
2022-08-28T14:56:47.574Z,28.49
2022-08-28T14:59:19.495Z,28.39
2022-08-28T15:01:50.644Z,28.33
2022-08-28T15:04:19.141Z,28.25
2022-08-28T15:06:46.172Z,28.15
2022-08-28T15:09:14.486Z,28.02
2022-08-28T15:11:42.356Z,27.85
2022-08-28T15:14:09.867Z,27.76
2022-08-28T15:16:39.485Z,27.66
2022-08-28T15:19:06.931Z,27.56
2022-08-28T15:21:37.694Z,27.52
2022-08-28T15:24:05.456Z,27.44
2022-08-28T15:26:32.893Z,27.38
2022-08-28T15:29:02.492Z,27.33
2022-08-28T15:31:30.850Z,27.28
2022-08-28T15:33:57.890Z,27.23
2022-08-28T15:36:24.871Z,27.14
2022-08-28T15:39:10.300Z,27.07
2022-08-28T15:41:38.232Z,26.97
2022-08-28T15:44:05.388Z,26.89
2022-08-28T15:46:34.324Z,26.81
2022-08-28T15:49:02.231Z,26.71
2022-08-28T15:51:30.464Z,26.59
2022-08-28T15:53:57.831Z,26.48
2022-08-28T15:56:24.909Z,26.35
2022-08-28T15:58:52.241Z,26.26
2022-08-28T16:01:20.045Z,26.19
2022-08-28T16:03:47.110Z,26.10
2022-08-28T16:06:16.384Z,26.03
2022-08-28T16:08:43.824Z,25.93
2022-08-28T16:11:12.055Z,25.86
2022-08-28T16:13:39.040Z,25.78
2022-08-28T16:16:06.035Z,25.73
2022-08-28T16:18:33.028Z,25.68
2022-08-28T16:21:04.579Z,25.61
2022-08-28T16:23:32.748Z,25.53
2022-08-28T16:26:00.219Z,25.46
2022-08-28T16:28:27.660Z,25.37
2022-08-28T16:30:54.681Z,25.30
2022-08-28T16:33:22.419Z,25.25
2022-08-28T16:35:56.151Z,25.19
2022-08-28T16:38:24.042Z,25.17
2022-08-28T16:40:51.055Z,25.12
2022-08-28T16:43:18.162Z,25.10
2022-08-28T16:45:45.959Z,25.04
2022-08-28T16:48:14.232Z,25.03
2022-08-28T16:50:44.583Z,25.00
2022-08-28T16:53:12.275Z,24.99
2022-08-28T16:55:40.827Z,24.99
2022-08-28T16:58:08.083Z,24.99
2022-08-28T17:00:42.097Z,24.96
2022-08-28T17:03:26.531Z,24.96
2022-08-28T17:05:55.504Z,24.92
2022-08-28T17:08:26.249Z,24.93
2022-08-28T17:10:56.119Z,24.92
2022-08-28T17:13:23.539Z,24.96
2022-08-28T17:16:00.535Z,24.96
2022-08-28T17:18:37.909Z,24.95
2022-08-28T17:21:27.998Z,24.92
2022-08-28T17:23:57.797Z,24.90
2022-08-28T17:26:26.090Z,24.92
2022-08-28T17:28:53.653Z,24.94
2022-08-28T17:31:25.889Z,24.89
2022-08-28T17:33:55.826Z,24.87
2022-08-28T17:36:33.282Z,24.84
2022-08-28T17:39:02.918Z,24.78
2022-08-28T17:41:30.038Z,24.74
2022-08-28T17:43:57.307Z,24.72
2022-08-28T17:46:24.417Z,24.70
2022-08-28T17:48:55.519Z,24.69
2022-08-28T17:51:33.106Z,24.65
2022-08-28T17:54:15.869Z,24.62
2022-08-28T17:56:43.161Z,24.58
2022-08-28T17:59:11.613Z,24.55
2022-08-28T18:01:39.363Z,24.54
2022-08-28T18:04:06.426Z,24.52
2022-08-28T18:06:34.088Z,24.48
2022-08-28T18:09:01.294Z,24.46
2022-08-28T18:11:28.657Z,24.46
2022-08-28T18:13:55.986Z,24.44
2022-08-28T18:16:27.616Z,24.47
2022-08-28T18:18:57.542Z,24.49
2022-08-28T18:21:25.033Z,24.48
2022-08-28T18:23:52.672Z,24.46
2022-08-28T18:26:19.861Z,24.46
2022-08-28T18:28:47.111Z,24.45
2022-08-28T18:31:14.242Z,24.47
2022-08-28T18:33:41.428Z,24.49
2022-08-28T18:36:09.740Z,24.49
2022-08-28T18:38:37.178Z,24.47
2022-08-28T18:41:06.595Z,24.46
2022-08-28T18:43:33.662Z,24.42
2022-08-28T18:46:02.079Z,24.39
2022-08-28T18:48:29.593Z,24.39
2022-08-28T18:50:59.015Z,24.38
2022-08-28T18:53:35.064Z,24.35
2022-08-28T18:56:04.516Z,24.33
2022-08-28T18:58:42.366Z,24.34
2022-08-28T19:01:14.560Z,24.36
2022-08-28T19:03:48.802Z,24.36
2022-08-28T19:06:30.380Z,24.36
2022-08-28T19:08:58.104Z,24.33
2022-08-28T19:11:25.331Z,24.33
2022-08-28T19:13:55.399Z,24.32
2022-08-28T19:16:22.420Z,24.30
2022-08-28T19:18:51.404Z,24.30
2022-08-28T19:21:20.066Z,24.27
2022-08-28T19:23:56.004Z,24.26
2022-08-28T19:26:27.547Z,24.23
2022-08-28T19:28:55.021Z,24.20
2022-08-28T19:31:23.046Z,24.15
2022-08-28T19:33:50.750Z,24.11
2022-08-28T19:36:20.878Z,24.09
2022-08-28T19:38:53.068Z,24.09
2022-08-28T19:41:23.149Z,24.05
2022-08-28T19:43:51.520Z,24.02
2022-08-28T19:46:19.773Z,23.95
2022-08-28T19:48:53.115Z,23.87
2022-08-28T19:51:22.549Z,23.82
2022-08-28T19:53:59.042Z,23.76
2022-08-28T19:56:30.066Z,23.69
2022-08-28T19:58:59.281Z,23.63
2022-08-28T20:01:30.143Z,23.55
2022-08-28T20:04:00.176Z,23.49
2022-08-28T20:06:28.698Z,23.41
2022-08-28T20:08:59.354Z,23.30
2022-08-28T20:11:30.212Z,23.26
2022-08-28T20:14:00.107Z,23.21
2022-08-28T20:16:28.151Z,23.14
2022-08-28T20:19:00.779Z,23.13
2022-08-28T20:21:36.859Z,23.14
2022-08-28T20:24:09.943Z,23.11
2022-08-28T20:26:37.174Z,23.05
2022-08-28T20:29:07.940Z,22.99
2022-08-28T20:31:40.578Z,22.91
2022-08-28T20:34:08.307Z,22.83
2022-08-28T20:36:35.350Z,22.73
2022-08-28T20:39:04.777Z,22.66
2022-08-28T20:41:32.641Z,22.57
2022-08-28T20:44:04.693Z,22.50
2022-08-28T20:46:38.353Z,22.44
2022-08-28T20:49:09.974Z,22.35
2022-08-28T20:51:53.310Z,22.26
2022-08-28T20:54:21.974Z,22.17
2022-08-28T20:56:53.755Z,22.10
2022-08-28T20:59:21.532Z,22.03
2022-08-28T21:01:52.056Z,21.95
2022-08-28T21:04:18.982Z,21.89
2022-08-28T21:06:46.870Z,21.81
2022-08-28T21:09:15.253Z,21.74
2022-08-28T21:11:42.665Z,21.63
2022-08-28T21:14:10.512Z,21.53
2022-08-28T21:16:38.443Z,21.48
2022-08-28T21:19:15.786Z,21.41
2022-08-28T21:21:44.186Z,21.34
2022-08-28T21:24:12.365Z,21.26
2022-08-28T21:26:46.537Z,21.22
2022-08-28T21:29:15.421Z,21.18
2022-08-28T21:31:43.877Z,21.11
2022-08-28T21:34:11.367Z,21.04
2022-08-28T21:36:38.900Z,20.94
2022-08-28T21:39:05.889Z,20.85
2022-08-28T21:41:33.326Z,20.75
2022-08-28T21:44:00.335Z,20.65
2022-08-28T21:46:27.901Z,20.57
2022-08-28T21:48:56.386Z,20.49
2022-08-28T21:51:24.193Z,20.48
2022-08-28T21:53:51.497Z,20.47
2022-08-28T21:56:19.892Z,20.49
2022-08-28T21:58:46.843Z,20.49
2022-08-28T22:01:17.490Z,20.50
2022-08-28T22:03:55.597Z,20.49
2022-08-28T22:06:27.060Z,20.50
2022-08-28T22:08:55.241Z,20.48
2022-08-28T22:11:24.933Z,20.47
2022-08-28T22:13:52.603Z,20.45
2022-08-28T22:16:19.826Z,20.43
2022-08-28T22:18:46.789Z,20.42
2022-08-28T22:21:33.684Z,20.40
2022-08-28T22:24:00.768Z,20.33
2022-08-28T22:26:27.804Z,20.29
2022-08-28T22:28:56.125Z,20.22
2022-08-28T22:31:26.991Z,20.18
2022-08-28T22:33:54.019Z,20.15
2022-08-28T22:36:21.704Z,20.17
2022-08-28T22:38:53.362Z,20.17
2022-08-28T22:41:21.035Z,20.13
2022-08-28T22:43:51.671Z,20.07
2022-08-28T22:46:20.690Z,20.00
2022-08-28T22:48:48.563Z,19.93
2022-08-28T22:51:18.616Z,19.88
2022-08-28T22:53:46.858Z,19.85
2022-08-28T22:56:14.165Z,19.85
2022-08-28T22:58:50.459Z,19.81
2022-08-28T23:01:18.710Z,19.75
2022-08-28T23:03:46.373Z,19.70
2022-08-28T23:06:14.046Z,19.64
2022-08-28T23:08:41.293Z,19.59
2022-08-28T23:11:08.756Z,19.55
2022-08-28T23:13:36.510Z,19.51
2022-08-28T23:16:03.722Z,19.46
2022-08-28T23:18:41.575Z,19.43
2022-08-28T23:21:13.835Z,19.38
2022-08-28T23:23:42.239Z,19.35
2022-08-28T23:26:13.016Z,19.36
2022-08-28T23:28:40.315Z,19.33
2022-08-28T23:31:09.035Z,19.30
2022-08-28T23:33:36.270Z,19.26
2022-08-28T23:36:03.786Z,19.25
2022-08-28T23:38:30.638Z,19.23
2022-08-28T23:40:58.116Z,19.21
2022-08-28T23:43:25.148Z,19.16
2022-08-28T23:45:52.191Z,19.13
2022-08-28T23:48:19.309Z,19.08
2022-08-28T23:50:46.201Z,19.08
2022-08-28T23:53:13.155Z,19.07
2022-08-28T23:55:40.911Z,19.05
2022-08-28T23:58:08.199Z,19.04
